createdAt,value
2023-03-26T00:02:18.339Z,11.17
2023-03-26T00:07:46.751Z,10.91
2023-03-26T00:12:59.290Z,10.85
2023-03-26T00:18:29.105Z,10.90
2023-03-26T00:23:49.662Z,10.78
2023-03-26T00:29:10.224Z,10.44
2023-03-26T00:34:30.548Z,10.51
2023-03-26T00:39:50.018Z,10.51
2023-03-26T00:45:07.126Z,10.51
2023-03-26T00:50:25.307Z,10.43
2023-03-26T00:55:43.453Z,10.38
2023-03-26T01:01:06.141Z,10.28
2023-03-26T01:06:39.917Z,10.17
2023-03-26T01:12:10.168Z,10.22
2023-03-26T01:17:41.756Z,9.96
2023-03-26T01:23:09.068Z,10.06
2023-03-26T01:39:40.623Z,10.00
2023-03-26T01:45:04.700Z,9.71
2023-03-26T01:50:25.222Z,9.41
2023-03-26T02:01:17.902Z,9.29
2023-03-26T02:06:44.748Z,9.28
2023-03-26T02:12:15.056Z,9.00
2023-03-26T02:17:35.798Z,8.72
2023-03-26T02:22:56.273Z,8.98
2023-03-26T02:28:16.900Z,8.93
2023-03-26T02:40:34.978Z,8.52
2023-03-26T02:46:01.870Z,8.52
2023-03-26T02:51:33.358Z,8.65
2023-03-26T02:57:03.408Z,8.64
2023-03-26T03:02:34.518Z,8.65
2023-03-26T03:08:04.237Z,8.72
2023-03-26T03:13:36.922Z,8.69
2023-03-26T03:19:04.408Z,8.69
2023-03-26T03:24:26.153Z,8.34
2023-03-26T03:35:20.151Z,8.24
2023-03-26T03:40:48.949Z,8.12
2023-03-26T03:46:09.481Z,8.21
2023-03-26T03:51:29.057Z,8.00
2023-03-26T03:56:54.906Z,7.92
2023-03-26T04:02:31.107Z,8.05
2023-03-26T04:07:48.048Z,7.99
2023-03-26T04:13:24.585Z,8.08
2023-03-26T04:18:55.181Z,8.37
2023-03-26T04:24:13.334Z,8.54
2023-03-26T04:29:50.252Z,8.70
2023-03-26T04:35:19.817Z,8.84
2023-03-26T04:40:49.507Z,9.05
2023-03-26T04:46:18.289Z,9.33
2023-03-26T04:51:51.499Z,9.55
2023-03-26T04:57:29.929Z,9.82
2023-03-26T05:02:58.304Z,10.03
2023-03-26T05:08:19.967Z,10.42
2023-03-26T05:13:49.841Z,10.69
2023-03-26T05:19:07.887Z,11.03
2023-03-26T05:24:27.588Z,11.36
2023-03-26T05:29:48.082Z,11.69
2023-03-26T05:40:38.313Z,11.67
2023-03-26T05:46:00.418Z,11.77
2023-03-26T05:51:21.032Z,11.90
2023-03-26T05:56:52.837Z,12.22
2023-03-26T06:02:21.912Z,12.55
2023-03-26T06:07:50.062Z,12.78
2023-03-26T06:13:13.651Z,13.01
2023-03-26T06:18:31.937Z,13.14
2023-03-26T06:24:03.658Z,13.19
2023-03-26T06:29:37.337Z,13.24
2023-03-26T06:35:16.437Z,13.23
2023-03-26T06:40:37.597Z,13.45
2023-03-26T06:46:14.388Z,13.65
2023-03-26T06:51:43.684Z,14.07
2023-03-26T06:57:14.469Z,14.42
2023-03-26T07:02:46.021Z,14.81
2023-03-26T07:08:18.706Z,15.14
2023-03-26T07:13:51.098Z,15.30
2023-03-26T07:19:20.786Z,15.23
2023-03-26T07:24:38.856Z,15.34
2023-03-26T07:51:51.977Z,16.46
2023-03-26T08:19:29.456Z,17.67
2023-03-26T08:25:29.287Z,18.18
2023-03-26T08:30:50.124Z,18.67
2023-03-26T08:36:06.322Z,19.19
2023-03-26T08:41:42.572Z,19.31
2023-03-26T08:58:46.797Z,19.82
2023-03-26T09:26:44.425Z,20.11
2023-03-26T09:38:11.259Z,19.96
2023-03-26T09:44:07.814Z,20.02
2023-03-26T10:01:28.200Z,20.66
2023-03-26T10:12:40.625Z,20.38
2023-03-26T10:55:42.644Z,19.93
2023-03-26T11:01:17.274Z,20.13
2023-03-26T11:23:19.020Z,20.25
2023-03-26T11:34:16.895Z,20.71
2023-03-26T11:39:42.780Z,20.93
2023-03-26T11:45:08.159Z,21.57
2023-03-26T12:01:35.571Z,22.21
2023-03-26T12:07:12.553Z,21.77
2023-03-26T12:12:36.415Z,21.51
2023-03-26T12:17:58.464Z,21.09
2023-03-26T12:23:57.820Z,20.84
2023-03-26T12:29:20.579Z,20.88
2023-03-26T12:34:41.155Z,20.71
2023-03-26T12:40:18.204Z,20.64
2023-03-26T12:46:03.858Z,20.70
2023-03-26T13:14:06.255Z,20.09
2023-03-26T14:02:47.360Z,19.29
2023-03-26T14:08:33.002Z,19.15
2023-03-26T14:14:10.542Z,19.04
2023-03-26T14:51:42.206Z,18.16
2023-03-26T15:08:04.200Z,17.67
2023-03-26T15:19:47.147Z,17.42
2023-03-26T15:41:42.915Z,16.96
2023-03-26T15:47:04.786Z,16.93
2023-03-26T15:58:39.884Z,16.83
2023-03-26T16:04:14.079Z,16.69
2023-03-26T16:15:21.437Z,16.58
2023-03-26T16:20:52.832Z,16.56
2023-03-26T17:35:08.847Z,15.69
2023-03-26T17:41:01.464Z,15.61
2023-03-26T17:52:09.516Z,15.38
2023-03-26T18:03:25.126Z,15.12
2023-03-26T18:08:57.365Z,15.07
2023-03-26T18:14:56.288Z,15.00
2023-03-26T18:20:14.791Z,15.01
2023-03-26T18:25:37.334Z,15.05
2023-03-26T18:30:57.626Z,15.01
2023-03-26T18:36:17.945Z,14.94
2023-03-26T18:41:51.396Z,14.86
2023-03-26T18:47:12.186Z,14.79
2023-03-26T18:52:32.790Z,14.78
2023-03-26T18:57:53.352Z,14.70
2023-03-26T19:03:14.338Z,14.55
2023-03-26T19:08:34.744Z,14.40
2023-03-26T19:14:06.959Z,14.34
2023-03-26T19:19:29.319Z,14.27
2023-03-26T19:24:47.375Z,14.21
2023-03-26T19:30:08.207Z,14.23
2023-03-26T19:35:32.400Z,14.23
2023-03-26T19:40:53.603Z,14.27
2023-03-26T19:46:21.307Z,14.25
2023-03-26T19:57:05.763Z,14.23
2023-03-26T20:07:48.552Z,14.07
2023-03-26T20:13:07.412Z,14.03
2023-03-26T20:18:27.957Z,14.04
2023-03-26T20:23:46.344Z,13.97
2023-03-26T20:29:07.447Z,13.82
2023-03-26T20:34:33.032Z,13.72
2023-03-26T20:39:53.054Z,13.55
2023-03-26T20:50:50.244Z,13.18
2023-03-26T20:56:05.577Z,12.99
2023-03-26T21:01:26.347Z,12.95
2023-03-26T21:06:46.859Z,12.77
2023-03-26T21:12:10.712Z,12.67
2023-03-26T21:17:29.477Z,12.63
2023-03-26T21:28:42.553Z,12.36
2023-03-26T21:34:09.411Z,12.26
2023-03-26T21:39:27.879Z,12.14
2023-03-26T21:44:56.093Z,12.09
2023-03-26T21:50:14.222Z,12.05
2023-03-26T21:55:35.308Z,11.94
2023-03-26T22:01:34.475Z,11.97
2023-03-26T22:12:36.308Z,11.88
2023-03-26T22:17:58.928Z,11.91
2023-03-26T22:23:17.791Z,12.00
2023-03-26T22:28:38.364Z,11.94
2023-03-26T22:33:58.885Z,11.79
2023-03-26T22:39:19.456Z,11.61
2023-03-26T22:44:36.394Z,11.41
2023-03-26T22:50:04.238Z,11.43
2023-03-26T22:55:28.325Z,11.40
2023-03-26T23:00:49.584Z,11.17
2023-03-26T23:06:09.385Z,11.21
2023-03-26T23:11:29.989Z,11.21
2023-03-26T23:16:48.446Z,11.07
2023-03-26T23:22:08.947Z,11.02
2023-03-26T23:27:29.036Z,10.96
2023-03-26T23:32:46.207Z,10.94
2023-03-26T23:38:16.364Z,10.88
2023-03-26T23:43:36.473Z,10.90
2023-03-26T23:49:05.952Z,10.93
2023-03-26T23:54:26.497Z,10.90
2023-03-26T23:59:43.371Z,11.09
